Time;durP1;ratioP1;P1;durP2;ratioP2;P2;SDS_P1;SDS_P2;PMS_P1;PMS_P2;Temp;Humidity;BMP_temperature;BMP_pressure;BME280_temperature;BME280_humidity;BME280_pressure;Samples;Min_cycle;Max_cycle;Signal;HPM_P1;HPM_P2
2023/04/23 00:01:46;;;;;;;;;59.00;45.75;;;;;9.94;79.66;100709.84;4966879;28;12427;-67
2023/04/23 00:04:16;;;;;;;;;59.75;48.50;;;;;9.91;79.07;100703.81;4955850;28;11588;-66
2023/04/23 00:06:45;;;;;;;;;57.50;46.00;;;;;9.88;79.62;100703.34;4997977;28;11780;-67
2023/04/23 00:09:13;;;;;;;;;61.50;46.25;;;;;9.87;79.86;100699.84;4990031;28;11619;-67
2023/04/23 00:11:40;;;;;;;;;58.50;45.00;;;;;9.88;79.86;100695.28;4973908;28;11605;-66
2023/04/23 00:14:06;;;;;;;;;61.00;49.25;;;;;9.86;79.53;100689.28;4982411;28;11659;-66
2023/04/23 00:16:33;;;;;;;;;66.50;51.25;;;;;9.87;79.52;100696.31;4972870;28;11612;-66
2023/04/23 00:19:00;;;;;;;;;58.50;42.25;;;;;9.85;79.38;100684.94;4968702;28;11651;-67
2023/04/23 00:21:26;;;;;;;;;64.25;49.25;;;;;9.84;79.62;100681.44;4962114;28;11742;-66
2023/04/23 00:23:53;;;;;;;;;54.50;44.25;;;;;9.84;79.59;100692.19;4953575;28;11645;-67
2023/04/23 00:26:19;;;;;;;;;61.00;48.00;;;;;9.82;79.47;100688.84;4982440;28;11658;-67
2023/04/23 00:28:46;;;;;;;;;67.00;52.50;;;;;9.76;79.16;100700.34;4982619;28;11540;-67
2023/04/23 00:31:12;;;;;;;;;63.00;49.75;;;;;9.73;80.19;100702.63;4985804;28;11640;-67
2023/04/23 00:33:39;;;;;;;;;66.50;50.00;;;;;9.73;80.05;100690.00;4979513;28;11604;-67
2023/04/23 00:36:06;;;;;;;;;68.25;49.75;;;;;9.72;80.14;100680.25;4987499;28;11616;-67
2023/04/23 00:38:33;;;;;;;;;65.00;51.50;;;;;9.74;80.28;100690.81;4992166;28;11725;-68
2023/04/23 00:40:59;;;;;;;;;63.50;50.00;;;;;9.72;79.49;100682.94;4973796;28;11621;-67
2023/04/23 00:43:26;;;;;;;;;59.25;46.50;;;;;9.69;79.80;100675.28;4972458;28;11702;-66
2023/04/23 00:45:52;;;;;;;;;59.50;48.00;;;;;9.69;80.21;100682.53;4953784;28;11664;-66
2023/04/23 00:48:20;;;;;;;;;64.00;48.25;;;;;9.69;79.78;100672.59;4969126;28;11706;-66
2023/04/23 00:50:46;;;;;;;;;64.00;50.75;;;;;9.69;80.31;100671.75;4976870;28;11617;-66
2023/04/23 00:53:13;;;;;;;;;63.00;50.50;;;;;9.64;79.78;100667.81;4970640;28;11674;-66
2023/04/23 00:55:39;;;;;;;;;64.25;49.25;;;;;9.64;80.08;100665.13;4964451;28;11632;-66
2023/04/23 00:58:06;;;;;;;;;62.50;49.50;;;;;9.64;80.27;100656.19;4983652;28;11614;-66
2023/04/23 01:00:41;;;;;;;;;59.00;49.75;;;;;9.62;80.14;100660.94;4977143;28;11605;-66
2023/04/23 01:03:09;;;;;;;;;56.75;47.75;;;;;9.62;80.77;100656.41;4975234;28;11609;-66
2023/04/23 01:05:35;;;;;;;;;63.50;50.50;;;;;9.63;80.36;100659.91;4964196;28;11692;-66
2023/04/23 01:08:02;;;;;;;;;64.25;50.25;;;;;9.63;80.55;100652.69;4974241;28;11618;-66
2023/04/23 01:10:31;;;;;;;;;59.50;48.75;;;;;9.65;80.49;100644.44;4974529;28;11633;-66
2023/04/23 01:12:58;;;;;;;;;74.50;52.75;;;;;9.64;80.59;100651.69;4978566;28;11715;-67
2023/04/23 01:15:25;;;;;;;;;58.00;49.00;;;;;9.68;80.61;100653.97;4977369;28;11638;-67
2023/04/23 01:17:52;;;;;;;;;64.00;48.75;;;;;9.69;80.55;100647.56;4970505;28;11697;-66
2023/04/23 01:20:19;;;;;;;;;65.75;51.00;;;;;9.68;80.19;100638.66;4978700;28;11777;-64
2023/04/23 01:22:45;;;;;;;;;59.75;47.75;;;;;9.70;80.84;100636.63;4971959;28;11613;-65
2023/04/23 01:25:12;;;;;;;;;59.50;48.50;;;;;9.70;80.57;100631.25;4969250;28;12387;-66
2023/04/23 01:27:40;;;;;;;;;64.00;48.75;;;;;9.71;80.33;100626.69;4972666;28;11656;-67
2023/04/23 01:30:07;;;;;;;;;60.75;46.75;;;;;9.70;80.44;100631.25;4981482;28;12218;-68
2023/04/23 01:32:34;;;;;;;;;52.75;46.00;;;;;9.71;81.01;100626.69;4968735;28;11585;-67
2023/04/23 01:35:03;;;;;;;;;46.50;41.00;;;;;9.74;80.55;100627.16;4994247;28;11582;-67
2023/04/23 01:37:31;;;;;;;;;56.25;44.50;;;;;9.77;80.92;100621.38;4971262;28;11693;-66
2023/04/23 01:39:57;;;;;;;;;58.00;44.50;;;;;9.79;80.90;100621.19;4970422;28;11650;-66
2023/04/23 01:42:24;;;;;;;;;49.75;41.50;;;;;9.76;80.62;100614.31;4983106;28;11581;-66
2023/04/23 01:44:52;;;;;;;;;59.75;45.00;;;;;9.76;80.83;100611.63;4982983;28;11738;-65
2023/04/23 01:47:19;;;;;;;;;59.00;47.75;;;;;9.71;80.54;100614.09;4976883;28;11549;-66
2023/04/23 01:49:45;;;;;;;;;57.00;45.00;;;;;9.71;80.93;100615.94;4970462;28;11588;-66
2023/04/23 01:52:13;;;;;;;;;54.00;44.75;;;;;9.71;80.72;100607.88;4968881;28;11712;-66
2023/04/23 01:54:39;;;;;;;;;52.50;44.50;;;;;9.73;81.04;100608.53;4961800;28;11593;-66
2023/04/23 01:57:06;;;;;;;;;59.00;45.50;;;;;9.71;80.73;100605.19;4952003;28;11564;-66
2023/04/23 01:59:33;;;;;;;;;68.25;50.50;;;;;9.68;81.01;100606.41;4950889;28;11623;-67
2023/04/23 02:01:59;;;;;;;;;68.25;52.00;;;;;9.66;80.58;100608.47;4980252;28;11744;-67
2023/04/23 02:04:26;;;;;;;;;66.00;52.00;;;;;9.62;80.47;100601.81;4977298;28;11646;-67
2023/04/23 02:06:53;;;;;;;;;61.50;50.00;;;;;9.60;81.02;100602.03;4965115;28;11619;-67
2023/04/23 02:09:20;;;;;;;;;64.00;48.25;;;;;9.60;81.15;100603.84;4978768;28;11680;-68
2023/04/23 02:11:46;;;;;;;;;54.50;45.00;;;;;9.60;81.22;100606.53;4974736;28;11639;-67
2023/04/23 02:14:13;;;;;;;;;57.25;46.25;;;;;9.60;81.15;100601.16;4969215;28;11655;-66
2023/04/23 02:16:39;;;;;;;;;60.00;46.75;;;;;9.61;81.30;100595.63;4980978;28;11609;-67
2023/04/23 02:19:05;;;;;;;;;55.25;44.50;;;;;9.62;81.35;100588.38;5004083;28;11684;-67
2023/04/23 02:21:32;;;;;;;;;59.25;47.00;;;;;9.61;81.17;100584.88;4969970;28;12589;-67
2023/04/23 02:23:59;;;;;;;;;63.75;48.25;;;;;9.60;80.87;100583.22;4970784;28;12308;-65
2023/04/23 02:26:26;;;;;;;;;59.50;46.75;;;;;9.60;81.05;100585.03;4968232;28;11603;-67
2023/04/23 02:28:52;;;;;;;;;60.00;47.25;;;;;9.63;81.17;100584.66;4966958;28;11678;-66
2023/04/23 02:31:19;;;;;;;;;57.75;47.25;;;;;9.68;81.18;100578.69;4978028;28;11704;-66
2023/04/23 02:33:46;;;;;;;;;58.50;46.00;;;;;9.67;81.38;100583.25;4985456;28;11683;-67
2023/04/23 02:36:13;;;;;;;;;49.00;42.25;;;;;9.63;81.01;100573.91;4952794;28;11689;-66
2023/04/23 02:38:41;;;;;;;;;60.50;47.25;;;;;9.62;81.68;100580.31;4970650;28;11561;-65
2023/04/23 02:41:08;;;;;;;;;59.50;48.25;;;;;9.61;81.37;100578.66;4978535;28;11727;-66
2023/04/23 02:43:34;;;;;;;;;61.25;46.75;;;;;9.60;81.29;100577.84;4998662;28;11615;-66
2023/04/23 02:46:07;;;;;;;;;52.75;45.75;;;;;9.61;81.38;100579.50;4964346;28;11582;-67
2023/04/23 02:48:40;;;;;;;;;53.25;41.75;;;;;9.63;81.48;100577.44;4969753;28;11569;-68
2023/04/23 02:51:11;;;;;;;;;57.50;47.00;;;;;9.62;80.94;100573.09;4958540;28;12252;-66
2023/04/23 02:53:38;;;;;;;;;63.25;49.25;;;;;9.60;81.45;100576.97;5004868;28;11594;-66
2023/04/23 02:56:06;;;;;;;;;58.25;45.75;;;;;9.61;81.16;100575.97;4963963;28;11643;-66
2023/04/23 02:58:33;;;;;;;;;62.25;47.75;;;;;9.58;81.40;100582.56;4994352;28;12324;-66
2023/04/23 03:01:01;;;;;;;;;57.50;48.25;;;;;9.58;81.24;100577.19;4969443;28;12397;-66
2023/04/23 03:03:30;;;;;;;;;56.50;46.25;;;;;9.59;81.05;100569.94;4958311;28;11575;-65
2023/04/23 03:06:00;;;;;;;;;62.25;45.75;;;;;9.55;81.61;100574.88;4962446;28;11624;-67
2023/04/23 03:08:27;;;;;;;;;55.50;42.75;;;;;9.57;81.44;100582.75;4969446;28;11600;-68
2023/04/23 03:10:54;;;;;;;;;59.00;45.75;;;;;9.56;81.04;100587.31;4983804;28;11583;-66
2023/04/23 03:13:21;;;;;;;;;54.25;43.25;;;;;9.58;81.46;100577.19;4997559;28;11552;-67
2023/04/23 03:15:47;;;;;;;;;64.25;50.00;;;;;9.56;81.38;100581.09;4968896;28;11770;-67
2023/04/23 03:18:14;;;;;;;;;63.75;49.00;;;;;9.57;81.44;100574.72;4979137;28;11652;-67
2023/04/23 03:20:43;;;;;;;;;61.00;48.00;;;;;9.60;81.40;100579.66;4985327;28;11557;-67
2023/04/23 03:23:12;;;;;;;;;56.50;47.25;;;;;9.61;81.55;100575.97;4954569;28;11581;-68
2023/04/23 03:25:39;;;;;;;;;59.75;49.75;;;;;9.61;81.63;100579.50;4985301;28;11699;-67
2023/04/23 03:28:06;;;;;;;;;55.50;42.25;;;;;9.61;81.66;100571.44;4979753;28;11740;-65
2023/04/23 03:30:33;;;;;;;;;52.75;43.25;;;;;9.61;81.31;100573.28;4982378;28;11570;-66
2023/04/23 03:33:01;;;;;;;;;48.00;43.50;;;;;9.59;81.04;100572.63;4977309;28;11691;-66
2023/04/23 03:35:28;;;;;;;;;52.00;43.00;;;;;9.59;81.19;100578.84;4974763;28;11579;-66
2023/04/23 03:37:57;;;;;;;;;46.00;40.50;;;;;9.60;81.28;100572.47;4975940;28;11549;-66
2023/04/23 03:40:24;;;;;;;;;50.25;42.00;;;;;9.59;81.25;100570.78;4986444;28;11669;-66
2023/04/23 03:42:56;;;;;;;;;49.25;40.50;;;;;9.57;81.16;100564.78;4973923;28;12307;-67
2023/04/23 03:45:34;;;;;;;;;55.50;42.00;;;;;9.59;81.60;100575.31;4977750;28;11695;-66
2023/04/23 03:48:01;;;;;;;;;45.00;40.75;;;;;9.59;81.07;100576.16;4975710;28;11631;-67
2023/04/23 03:50:28;;;;;;;;;44.00;39.25;;;;;9.56;81.20;100565.81;4995853;28;11723;-67
2023/04/23 03:53:08;;;;;;;;;50.50;42.25;;;;;9.54;81.36;100562.47;4988139;28;11567;-66
2023/04/23 03:56:13;;;;;;;;;49.50;42.00;;;;;9.59;81.23;100565.41;4974664;28;11832;-66
2023/04/23 03:58:47;;;;;;;;;35.25;34.25;;;;;9.61;81.20;100560.69;4977208;28;11544;-66
2023/04/23 04:01:14;;;;;;;;;38.75;32.00;;;;;9.64;81.03;100556.75;5002586;28;11551;-66
2023/04/23 04:03:40;;;;;;;;;39.50;36.50;;;;;9.66;80.79;100552.03;4984305;28;11308;-66
2023/04/23 04:06:08;;;;;;;;;42.25;40.00;;;;;9.63;80.46;100549.72;4979381;28;11572;-65
2023/04/23 04:08:34;;;;;;;;;41.25;39.00;;;;;9.63;80.69;100552.41;4971660;28;12406;-67
2023/04/23 04:11:01;;;;;;;;;40.50;37.75;;;;;9.63;80.90;100545.19;4983910;28;11570;-67
2023/04/23 04:13:27;;;;;;;;;53.00;40.00;;;;;9.65;80.78;100547.69;4992711;28;11595;-67
2023/04/23 04:15:53;;;;;;;;;39.50;34.75;;;;;9.69;80.99;100558.88;4998897;28;11557;-66
2023/04/23 04:18:20;;;;;;;;;36.00;32.25;;;;;9.70;80.61;100561.38;4970543;28;11240;-67
2023/04/23 04:20:46;;;;;;;;;50.50;39.75;;;;;9.66;80.68;100557.41;4975025;28;11573;-66
2023/04/23 04:23:13;;;;;;;;;40.50;36.00;;;;;9.67;80.90;100556.38;4955834;28;11604;-66
2023/04/23 04:25:39;;;;;;;;;43.50;38.00;;;;;9.70;80.90;100561.38;4978170;28;11582;-66
2023/04/23 04:28:10;;;;;;;;;38.00;33.75;;;;;9.74;81.21;100557.25;4953434;28;11691;-65
2023/04/23 04:30:38;;;;;;;;;39.50;34.25;;;;;9.76;81.23;100549.81;4984288;28;11600;-66
2023/04/23 04:33:04;;;;;;;;;36.50;34.50;;;;;9.76;80.78;100560.56;4971945;28;12229;-67
2023/04/23 04:35:31;;;;;;;;;33.50;33.50;;;;;9.77;81.24;100558.75;4998382;28;12382;-66
2023/04/23 04:37:57;;;;;;;;;45.25;39.00;;;;;9.77;80.83;100556.06;4972633;28;11543;-66
2023/04/23 04:40:27;;;;;;;;;42.75;36.25;;;;;9.78;81.03;100561.22;4960720;28;11574;-66
2023/04/23 04:42:53;;;;;;;;;32.25;31.00;;;;;9.78;80.98;100563.91;4967175;28;11547;-66
2023/04/23 04:45:20;;;;;;;;;41.75;33.25;;;;;9.79;81.22;100552.13;4974650;28;11602;-67
2023/04/23 04:47:46;;;;;;;;;40.75;35.00;;;;;9.80;81.29;100559.19;4972843;28;11360;-66
2023/04/23 04:50:13;;;;;;;;;45.50;34.00;;;;;9.79;81.03;100552.13;4954809;28;11650;-67
2023/04/23 04:52:40;;;;;;;;;34.25;34.00;;;;;9.80;80.87;100552.94;5009276;23;11523;-68
2023/04/23 04:55:06;;;;;;;;;38.25;34.00;;;;;9.80;81.12;100551.13;4978707;28;11501;-68
2023/04/23 04:57:33;;;;;;;;;40.25;35.00;;;;;9.80;81.05;100551.13;4983287;28;11583;-67
2023/04/23 05:00:03;;;;;;;;;39.50;34.50;;;;;9.83;81.13;100557.94;4971638;28;11464;-68
2023/04/23 05:02:30;;;;;;;;;50.75;37.50;;;;;9.82;81.21;100567.88;4973670;28;11583;-69
2023/04/23 05:04:57;;;;;;;;;50.00;42.25;;;;;9.80;81.02;100567.25;4964598;28;11466;-69
2023/04/23 05:07:23;;;;;;;;;47.25;37.25;;;;;9.80;81.39;100561.00;4959352;28;11514;-69
2023/04/23 05:09:50;;;;;;;;;44.50;38.50;;;;;9.79;81.80;100557.50;4958995;28;11473;-68
2023/04/23 05:12:16;;;;;;;;;44.25;39.00;;;;;9.78;81.32;100552.31;4978159;28;11273;-69
2023/04/23 05:14:42;;;;;;;;;44.25;41.75;;;;;9.77;81.45;100551.50;4975239;28;12211;-69
2023/04/23 05:17:10;;;;;;;;;35.25;33.00;;;;;9.80;81.87;100551.13;4957921;28;11476;-67
2023/04/23 05:19:36;;;;;;;;;44.50;39.50;;;;;9.83;81.78;100558.75;4952680;28;11474;-68
2023/04/23 05:22:03;;;;;;;;;31.50;30.75;;;;;9.88;81.57;100548.28;4967484;28;11458;-68
2023/04/23 05:24:29;;;;;;;;;41.00;34.75;;;;;9.96;81.68;100549.13;4955375;28;11583;-67
2023/04/23 05:26:56;;;;;;;;;29.00;25.00;;;;;10.08;82.36;100542.16;4971043;28;11512;-66
2023/04/23 05:29:23;;;;;;;;;31.00;29.75;;;;;10.25;81.67;100551.63;4978231;28;11231;-68
2023/04/23 05:31:50;;;;;;;;;39.00;35.50;;;;;10.38;81.21;100550.84;4952437;28;11329;-66
2023/04/23 05:34:17;;;;;;;;;33.75;31.75;;;;;10.42;80.25;100546.72;4962671;28;11103;-70
2023/04/23 05:36:43;;;;;;;;;40.25;37.50;;;;;10.38;79.84;100564.31;4978514;28;11316;-70
2023/04/23 05:39:10;;;;;;;;;50.25;42.25;;;;;10.37;79.98;100568.00;4970468;28;11468;-68
2023/04/23 05:41:36;;;;;;;;;39.75;37.00;;;;;10.40;80.28;100568.44;4980923;28;11583;-68
2023/04/23 05:44:03;;;;;;;;;40.75;38.50;;;;;10.38;80.22;100567.81;4976287;28;11486;-69
2023/04/23 05:46:29;;;;;;;;;47.00;41.00;;;;;10.37;79.79;100568.00;4963036;28;12201;-70
2023/04/23 05:48:56;;;;;;;;;42.00;40.00;;;;;10.31;80.38;100574.19;4970738;28;11477;-68
2023/04/23 05:51:22;;;;;;;;;45.50;38.00;;;;;10.28;80.08;100561.97;4985830;28;11596;-69
2023/04/23 05:53:49;;;;;;;;;47.50;40.00;;;;;10.22;80.00;100559.22;4981859;28;11483;-68
2023/04/23 05:56:15;;;;;;;;;40.75;36.00;;;;;10.20;80.58;100559.41;4952578;28;12260;-69
2023/04/23 05:58:42;;;;;;;;;42.25;34.50;;;;;10.20;80.46;100554.03;4971349;28;11619;-69
2023/04/23 06:01:08;;;;;;;;;39.75;37.75;;;;;10.20;80.65;100551.34;4969313;28;12209;-69
2023/04/23 06:03:36;;;;;;;;;39.50;34.50;;;;;10.23;80.82;100561.69;4977361;28;11493;-68
2023/04/23 06:06:03;;;;;;;;;39.00;37.00;;;;;10.27;80.45;100552.25;4965378;28;11479;-68
2023/04/23 06:08:29;;;;;;;;;50.50;38.75;;;;;10.25;80.60;100546.25;4969661;28;11268;-69
2023/04/23 06:10:56;;;;;;;;;38.50;34.75;;;;;10.43;81.44;100542.16;4971749;28;11487;-69
2023/04/23 06:13:22;;;;;;;;;45.50;41.50;;;;;10.60;80.80;100535.41;4969756;28;12679;-69
2023/04/23 06:15:49;;;;;;;;;37.75;34.75;;;;;10.80;80.50;100540.84;4959396;28;11602;-67
2023/04/23 06:18:15;;;;;;;;;33.25;30.25;;;;;10.97;79.62;100539.44;4951657;29;11375;-69
2023/04/23 06:20:42;;;;;;;;;40.50;36.75;;;;;11.08;79.10;100532.63;4955709;28;11102;-69
2023/04/23 06:23:10;;;;;;;;;34.50;32.75;;;;;11.26;78.19;100532.00;4979023;28;11468;-69
2023/04/23 06:25:36;;;;;;;;;38.00;33.00;;;;;11.42;78.05;100545.06;4960080;28;10978;-68
2023/04/23 06:28:03;;;;;;;;;36.00;33.00;;;;;11.59;77.35;100538.25;4973954;28;12171;-69
2023/04/23 06:30:35;;;;;;;;;27.00;26.25;;;;;11.75;76.46;100537.00;4964986;28;11076;-68
2023/04/23 06:33:02;;;;;;;;;34.75;28.50;;;;;11.87;76.41;100538.03;4937141;28;10744;-69
2023/04/23 06:35:29;;;;;;;;;42.50;36.50;;;;;11.86;75.27;100528.28;4963876;28;10742;-69
2023/04/23 06:37:55;;;;;;;;;44.00;35.25;;;;;11.88;75.25;100539.69;4979277;28;10962;-68
2023/04/23 06:40:22;;;;;;;;;27.75;24.00;;;;;11.94;75.34;100535.31;4977525;28;11080;-68
2023/04/23 06:42:48;;;;;;;;;34.25;27.50;;;;;12.02;75.49;100527.00;4973129;28;10870;-68
2023/04/23 06:45:32;;;;;;;;;36.75;34.00;;;;;12.08;75.14;100542.34;4946335;28;10756;-69
2023/04/23 06:47:59;;;;;;;;;39.75;36.00;;;;;12.04;74.62;100535.72;4966164;28;10836;-69
2023/04/23 06:50:25;;;;;;;;;36.00;33.00;;;;;12.03;75.12;100533.22;4969516;28;11178;-68
2023/04/23 06:52:52;;;;;;;;;33.75;31.25;;;;;12.11;75.17;100538.38;4974444;28;10889;-68
2023/04/23 06:55:20;;;;;;;;;31.25;29.50;;;;;12.16;74.98;100525.09;4964012;28;10755;-68
2023/04/23 06:57:47;;;;;;;;;37.25;33.50;;;;;12.25;74.76;100523.00;4955166;28;10804;-68
2023/04/23 07:00:14;;;;;;;;;26.25;26.25;;;;;12.32;74.88;100518.41;4960735;28;11527;-69
2023/04/23 07:02:41;;;;;;;;;28.50;25.00;;;;;12.43;74.96;100515.03;4956862;28;10571;-69
2023/04/23 07:05:09;;;;;;;;;32.25;28.25;;;;;12.50;74.33;100510.44;4962129;28;10445;-69
2023/04/23 07:07:37;;;;;;;;;33.50;32.75;;;;;12.53;74.40;100504.59;4991275;28;10654;-69
2023/04/23 07:10:04;;;;;;;;;29.00;28.00;;;;;12.62;74.21;100505.19;4981805;28;10720;-68
2023/04/23 07:12:30;;;;;;;;;31.75;29.00;;;;;12.69;74.05;100505.16;4957885;28;10862;-68
2023/04/23 07:14:57;;;;;;;;;30.50;28.50;;;;;12.75;73.96;100506.97;4966923;28;11199;-68
2023/04/23 07:17:23;;;;;;;;;21.25;21.25;;;;;12.84;73.30;100503.81;4974260;28;10423;-68
2023/04/23 07:19:50;;;;;;;;;28.25;26.25;;;;;12.91;73.51;100511.03;4972950;28;10314;-69
2023/04/23 07:22:16;;;;;;;;;34.25;26.25;;;;;12.96;73.45;100509.31;4980501;28;10418;-67
2023/04/23 07:24:43;;;;;;;;;28.50;22.00;;;;;13.01;73.05;100512.22;4976346;28;10345;-69
2023/04/23 07:27:10;;;;;;;;;26.50;24.75;;;;;13.05;73.11;100504.50;4977891;28;10268;-68
2023/04/23 07:29:36;;;;;;;;;29.25;22.25;;;;;13.09;72.97;100497.63;4969247;28;10341;-69
2023/04/23 07:32:02;;;;;;;;;24.25;23.50;;;;;13.19;73.09;100497.13;4964979;28;10278;-69
2023/04/23 07:34:29;;;;;;;;;30.25;27.50;;;;;13.19;72.76;100500.66;4977821;28;10452;-69
2023/04/23 07:36:56;;;;;;;;;18.00;18.00;;;;;13.21;72.74;100500.44;4961009;28;10556;-69
2023/04/23 07:39:22;;;;;;;;;21.25;20.50;;;;;13.25;72.86;100507.94;4977784;28;10170;-69
2023/04/23 07:41:49;;;;;;;;;23.25;17.75;;;;;13.31;72.78;100492.69;4959615;28;10052;-69
2023/04/23 07:44:15;;;;;;;;;24.00;21.00;;;;;13.33;72.74;100490.59;4965382;28;10111;-68
2023/04/23 07:46:42;;;;;;;;;32.00;26.25;;;;;13.33;72.74;100494.13;4983175;28;10248;-68
2023/04/23 07:49:08;;;;;;;;;19.25;19.25;;;;;13.36;72.67;100493.66;4980604;28;10368;-69
2023/04/23 07:51:35;;;;;;;;;19.25;17.00;;;;;13.43;72.58;100495.50;4955499;28;10297;-68
2023/04/23 07:54:01;;;;;;;;;20.00;16.75;;;;;13.51;72.40;100496.03;4980514;28;10162;-69
2023/04/23 07:56:31;;;;;;;;;20.25;18.25;;;;;13.66;72.37;100494.88;4960228;28;10055;-68
2023/04/23 07:58:58;;;;;;;;;26.00;24.25;;;;;13.74;72.50;100495.41;4970231;28;10098;-69
2023/04/23 08:01:25;;;;;;;;;21.00;18.50;;;;;13.82;72.37;100497.84;4975663;28;10276;-68
2023/04/23 08:03:54;;;;;;;;;18.75;17.75;;;;;13.83;71.57;100494.06;4956455;28;10033;-69
2023/04/23 08:06:25;;;;;;;;;16.00;16.00;;;;;13.90;71.33;100495.91;4971597;28;10081;-69
2023/04/23 08:08:54;;;;;;;;;21.00;19.50;;;;;13.90;71.36;100495.91;4957684;28;10038;-69
2023/04/23 08:11:21;;;;;;;;;21.25;19.00;;;;;13.94;71.62;100488.97;4959627;28;10892;-70
2023/04/23 08:13:48;;;;;;;;;15.50;15.25;;;;;14.03;70.94;100491.16;4968707;28;10280;-69
2023/04/23 08:16:14;;;;;;;;;16.75;14.50;;;;;14.12;70.63;100496.25;4979114;28;9964;-67
2023/04/23 08:18:41;;;;;;;;;21.25;18.50;;;;;14.15;70.75;100493.09;4951919;28;9862;-70
2023/04/23 08:21:07;;;;;;;;;17.00;16.00;;;;;14.19;70.34;100484.31;4985340;28;10002;-70
2023/04/23 08:23:33;;;;;;;;;16.50;14.25;;;;;14.31;70.25;100465.41;4961590;28;9928;-69
2023/04/23 08:26:01;;;;;;;;;12.25;12.25;;;;;14.47;70.54;100462.06;4973210;28;10714;-70
2023/04/23 08:28:28;;;;;;;;;12.25;11.50;;;;;14.56;69.59;100468.03;4972182;28;9733;-70
2023/04/23 08:30:54;;;;;;;;;15.75;14.25;;;;;14.64;69.20;100466.88;4986763;28;9769;-68
2023/04/23 08:33:21;;;;;;;;;14.75;14.75;;;;;14.70;68.84;100469.47;4975018;28;9806;-69
2023/04/23 08:35:48;;;;;;;;;17.75;12.50;;;;;14.75;68.51;100475.06;4977060;28;10488;-69
2023/04/23 08:38:14;;;;;;;;;11.00;10.50;;;;;14.87;68.40;100474.25;4954271;28;9498;-69
2023/04/23 08:40:41;;;;;;;;;13.75;10.25;;;;;14.92;68.21;100471.69;4973163;28;9544;-69
2023/04/23 08:43:29;;;;;;;;;12.00;12.00;;;;;14.95;68.27;100472.06;4971470;28;10426;-68
2023/04/23 08:46:03;;;;;;;;;12.75;10.75;;;;;14.89;67.43;100472.13;4971879;28;10479;-69
2023/04/23 08:48:30;;;;;;;;;10.75;10.75;;;;;14.92;67.43;100475.22;4967049;28;9642;-69
2023/04/23 08:50:58;;;;;;;;;10.50;8.75;;;;;15.06;67.84;100475.81;4980547;28;9482;-69
2023/04/23 08:53:28;;;;;;;;;8.00;8.00;;;;;15.13;67.20;100473.03;4988221;28;9456;-69
2023/04/23 08:55:59;;;;;;;;;15.75;11.50;;;;;15.31;67.23;100476.47;4973548;28;9326;-69
2023/04/23 08:58:26;;;;;;;;;11.00;10.00;;;;;15.43;66.51;100476.47;4975686;28;10334;-68
2023/04/23 09:00:56;;;;;;;;;10.67;10.33;;;;;15.49;66.52;100474.72;4970968;28;9441;-69
2023/04/23 09:03:24;;;;;;;;;13.33;10.00;;;;;15.58;66.47;100470.56;4964715;28;9314;-69
2023/04/23 09:05:52;;;;;;;;;13.67;9.00;;;;;15.65;65.67;100474.03;4951932;28;9664;-69
2023/04/23 09:08:20;;;;;;;;;11.67;11.67;;;;;15.68;66.13;100476.28;4971829;28;9306;-69
2023/04/23 09:10:46;;;;;;;;;13.00;10.00;;;;;15.79;65.97;100480.84;4971688;28;9380;-69
2023/04/23 09:13:13;;;;;;;;;12.00;11.33;;;;;15.91;65.85;100477.31;4969096;28;9378;-70
2023/04/23 09:15:42;;;;;;;;;7.67;7.33;;;;;15.95;65.09;100468.44;4959518;28;9575;-70
2023/04/23 09:18:09;;;;;;;;;11.00;9.67;;;;;15.97;65.02;100466.31;4971214;28;9537;-70
2023/04/23 09:20:36;;;;;;;;;15.00;12.00;;;;;16.07;64.27;100457.56;4972726;28;9451;-68
2023/04/23 09:23:06;;;;;;;;;8.00;8.00;;;;;16.10;63.43;100467.94;4978357;28;9318;-70
2023/04/23 09:25:33;;;;;;;;;9.33;8.00;;;;;16.06;63.93;100464.06;4967864;28;9185;-70
2023/04/23 09:28:02;;;;;;;;;7.00;7.00;;;;;16.14;63.87;100460.16;4984322;28;9239;-70
2023/04/23 09:30:29;;;;;;;;;9.00;9.00;;;;;16.20;63.74;100454.56;4965867;28;9928;-70
2023/04/23 09:32:56;;;;;;;;;9.33;9.00;;;;;16.32;63.54;100458.06;4942657;28;9424;-70
2023/04/23 09:35:26;;;;;;;;;7.67;6.00;;;;;16.32;62.82;100451.81;4974021;28;9215;-71
2023/04/23 09:37:53;;;;;;;;;8.67;7.00;;;;;16.28;63.24;100446.03;4975138;28;9437;-70
2023/04/23 09:40:22;;;;;;;;;7.00;7.00;;;;;16.46;63.21;100449.66;4970753;28;9147;-71
2023/04/23 09:42:52;;;;;;;;;7.67;6.00;;;;;16.55;62.11;100451.72;4979619;28;9222;-70
2023/04/23 09:45:19;;;;;;;;;7.33;7.33;;;;;16.72;62.22;100459.09;4968726;28;8993;-71
2023/04/23 09:47:55;;;;;;;;;9.00;9.00;;;;;16.87;61.62;100453.97;4971724;28;8997;-71
2023/04/23 09:50:32;;;;;;;;;7.00;6.33;;;;;16.80;60.95;100445.13;4970157;28;9047;-69
2023/04/23 09:52:59;;;;;;;;;9.67;7.33;;;;;16.90;61.43;100449.94;4977376;28;9992;-69
2023/04/23 09:55:37;;;;;;;;;8.00;6.00;;;;;16.95;60.18;100444.56;4963911;28;9201;-69
2023/04/23 09:58:06;;;;;;;;;10.33;8.33;;;;;16.92;60.61;100451.31;4951055;28;9105;-70
2023/04/23 10:00:35;;;;;;;;;7.00;7.00;;;;;16.84;60.15;100449.00;4964677;28;8995;-69
2023/04/23 10:03:02;;;;;;;;;8.00;8.00;;;;;16.64;60.58;100446.72;4982546;28;8990;-69
2023/04/23 10:05:30;;;;;;;;;9.00;8.00;;;;;16.51;61.11;100444.31;4980126;28;9062;-69
2023/04/23 10:08:12;;;;;;;;;6.67;6.67;;;;;16.49;61.10;100441.03;4967650;28;9065;-71
2023/04/23 10:10:39;;;;;;;;;5.33;5.00;;;;;16.59;61.68;100443.09;4972127;28;8914;-70
2023/04/23 10:13:22;;;;;;;;;7.33;7.00;;;;;16.52;61.54;100445.94;4984971;28;8940;-68
2023/04/23 10:15:49;;;;;;;;;7.33;6.67;;;;;16.66;61.12;100441.06;4982348;28;9063;-71
2023/04/23 10:18:18;;;;;;;;;12.67;11.00;;;;;16.69;60.06;100445.97;4985615;28;9098;-68
2023/04/23 10:20:45;;;;;;;;;7.00;7.00;;;;;16.82;59.52;100445.72;4978235;28;10046;-69
2023/04/23 10:23:12;;;;;;;;;9.67;8.33;;;;;16.90;59.82;100458.09;4975073;28;9077;-68
2023/04/23 10:25:40;;;;;;;;;6.33;6.00;;;;;16.96;58.87;100451.66;4970278;28;8929;-69
2023/04/23 10:28:10;;;;;;;;;10.33;8.00;;;;;16.91;58.85;100444.25;4951718;29;9072;-69
2023/04/23 10:30:37;;;;;;;;;11.33;10.33;;;;;16.85;59.16;100439.78;4956894;28;9057;-68
2023/04/23 10:33:05;;;;;;;;;6.33;6.00;;;;;16.88;59.06;100430.31;4961140;28;9094;-69
2023/04/23 10:35:48;;;;;;;;;7.00;7.00;;;;;16.86;59.14;100438.72;4972768;28;8908;-71
2023/04/23 10:38:14;;;;;;;;;6.67;6.67;;;;;16.87;58.97;100428.66;4969997;28;9169;-70
2023/04/23 10:40:45;;;;;;;;;9.00;8.00;;;;;16.85;59.48;100419.91;4957738;28;8926;-70
2023/04/23 10:43:12;;;;;;;;;8.33;8.33;;;;;16.82;59.31;100420.44;4967495;28;8989;-69
2023/04/23 10:45:38;;;;;;;;;7.33;7.00;;;;;16.67;58.04;100410.91;4958386;28;9164;-69
2023/04/23 10:48:05;;;;;;;;;7.67;6.00;;;;;16.62;58.26;100413.53;4941943;28;9370;-68
2023/04/23 10:50:35;;;;;;;;;9.00;6.00;;;;;16.60;58.10;100409.41;4968031;28;9086;-69
2023/04/23 10:53:03;;;;;;;;;5.67;4.67;;;;;16.63;58.73;100408.91;4958297;28;9005;-69
2023/04/23 10:55:31;;;;;;;;;10.00;7.00;;;;;16.55;57.90;100399.28;4968168;28;9079;-70
2023/04/23 10:57:59;;;;;;;;;5.33;5.33;;;;;16.56;58.34;100403.63;4959447;28;9188;-68
2023/04/23 11:00:49;;;;;;;;;6.67;5.33;;;;;16.52;58.34;100397.03;4961598;28;9075;-70
2023/04/23 11:03:41;;;;;;;;;6.67;6.67;;;;;16.65;58.54;100404.91;4973445;28;9245;-71
2023/04/23 11:06:19;;;;;;;;;6.00;3.00;;;;;16.56;57.74;100393.59;4953284;28;9624;-68
2023/04/23 11:08:55;;;;;;;;;5.33;4.67;;;;;16.56;57.46;100390.88;4954722;28;9680;-69
2023/04/23 11:11:42;;;;;;;;;5.75;4.25;;;;;16.61;57.14;100390.16;4962027;28;9064;-69
2023/04/23 11:14:14;;;;;;;;;4.67;4.33;;;;;16.67;57.46;100396.50;4962172;28;8837;-69
2023/04/23 11:16:41;;;;;;;;;2.00;2.00;;;;;16.66;57.28;100387.53;4968930;28;9019;-69
2023/04/23 11:19:14;;;;;;;;;3.00;3.00;;;;;16.79;56.94;100384.50;4965616;28;8863;-69
2023/04/23 11:22:11;;;;;;;;;5.00;5.00;;;;;16.85;56.77;100385.41;4942868;29;8842;-68